sensor_id;sensor_type;location;lat;lon;timestamp;temperature;humidity
7159;DHT22;63175;52.374;13.132;2023-01-10T00:00:07;7.60;99.90
7159;DHT22;63175;52.374;13.132;2023-01-10T00:02:34;7.60;99.90
7159;DHT22;63175;52.374;13.132;2023-01-10T00:05:01;7.60;99.90
7159;DHT22;63175;52.374;13.132;2023-01-10T00:07:27;7.60;99.90
7159;DHT22;63175;52.374;13.132;2023-01-10T00:09:56;7.60;99.90
7159;DHT22;63175;52.374;13.132;2023-01-10T00:12:22;7.60;99.90
7159;DHT22;63175;52.374;13.132;2023-01-10T00:15:08;7.60;99.90
7159;DHT22;63175;52.374;13.132;2023-01-10T00:17:34;7.60;99.90
7159;DHT22;63175;52.374;13.132;2023-01-10T00:20:01;7.60;99.90
7159;DHT22;63175;52.374;13.132;2023-01-10T00:22:28;7.60;99.90
7159;DHT22;63175;52.374;13.132;2023-01-10T00:24:56;7.60;99.90
7159;DHT22;63175;52.374;13.132;2023-01-10T00:27:23;7.50;99.90
7159;DHT22;63175;52.374;13.132;2023-01-10T00:29:50;7.50;99.90
7159;DHT22;63175;52.374;13.132;2023-01-10T00:32:18;7.50;99.90
7159;DHT22;63175;52.374;13.132;2023-01-10T00:34:45;7.50;99.90
7159;DHT22;63175;52.374;13.132;2023-01-10T00:37:12;7.50;99.90
7159;DHT22;63175;52.374;13.132;2023-01-10T00:39:39;7.50;99.90
7159;DHT22;63175;52.374;13.132;2023-01-10T00:42:08;7.50;99.90
7159;DHT22;63175;52.374;13.132;2023-01-10T00:44:53;7.50;99.90
7159;DHT22;63175;52.374;13.132;2023-01-10T00:47:19;7.50;99.90
7159;DHT22;63175;52.374;13.132;2023-01-10T00:49:46;7.50;99.90
7159;DHT22;63175;52.374;13.132;2023-01-10T00:52:13;7.40;99.90
7159;DHT22;63175;52.374;13.132;2023-01-10T00:54:40;7.40;99.90
7159;DHT22;63175;52.374;13.132;2023-01-10T00:57:08;7.40;99.90
7159;DHT22;63175;52.374;13.132;2023-01-10T00:59:35;7.40;99.90
7159;DHT22;63175;52.374;13.132;2023-01-10T01:02:02;7.40;99.90
7159;DHT22;63175;52.374;13.132;2023-01-10T01:04:29;7.40;99.90
7159;DHT22;63175;52.374;13.132;2023-01-10T01:06:59;7.40;99.90
7159;DHT22;63175;52.374;13.132;2023-01-10T01:09:26;7.40;99.90
7159;DHT22;63175;52.374;13.132;2023-01-10T01:11:53;7.40;99.90
7159;DHT22;63175;52.374;13.132;2023-01-10T01:14:22;7.40;99.90
7159;DHT22;63175;52.374;13.132;2023-01-10T01:16:49;7.30;99.90
7159;DHT22;63175;52.374;13.132;2023-01-10T01:19:16;7.30;99.90
7159;DHT22;63175;52.374;13.132;2023-01-10T01:21:42;7.30;99.90
7159;DHT22;63175;52.374;13.132;2023-01-10T01:24:10;7.30;99.90
7159;DHT22;63175;52.374;13.132;2023-01-10T01:26:37;7.20;99.90
7159;DHT22;63175;52.374;13.132;2023-01-10T01:29:04;7.20;99.90
7159;DHT22;63175;52.374;13.132;2023-01-10T01:31:32;7.20;99.90
7159;DHT22;63175;52.374;13.132;2023-01-10T01:33:59;7.20;99.90
7159;DHT22;63175;52.374;13.132;2023-01-10T01:36:26;7.20;99.90
7159;DHT22;63175;52.374;13.132;2023-01-10T01:38:53;7.10;99.90
7159;DHT22;63175;52.374;13.132;2023-01-10T01:41:20;7.10;99.90
7159;DHT22;63175;52.374;13.132;2023-01-10T01:44:05;7.10;99.90
7159;DHT22;63175;52.374;13.132;2023-01-10T01:46:37;7.10;99.90
7159;DHT22;63175;52.374;13.132;2023-01-10T01:49:10;7.10;99.90
7159;DHT22;63175;52.374;13.132;2023-01-10T01:51:39;7.10;99.90
7159;DHT22;63175;52.374;13.132;2023-01-10T01:54:08;7.10;99.90
7159;DHT22;63175;52.374;13.132;2023-01-10T01:56:39;7.10;99.90
7159;DHT22;63175;52.374;13.132;2023-01-10T01:59:11;7.10;99.90
7159;DHT22;63175;52.374;13.132;2023-01-10T02:01:44;7.00;99.90
7159;DHT22;63175;52.374;13.132;2023-01-10T02:04:16;7.00;99.90
7159;DHT22;63175;52.374;13.132;2023-01-10T02:06:45;7.00;99.90
7159;DHT22;63175;52.374;13.132;2023-01-10T02:09:19;7.00;99.90
7159;DHT22;63175;52.374;13.132;2023-01-10T02:11:48;7.00;99.90
7159;DHT22;63175;52.374;13.132;2023-01-10T02:14:15;7.00;99.90
7159;DHT22;63175;52.374;13.132;2023-01-10T02:16:44;7.00;99.90
7159;DHT22;63175;52.374;13.132;2023-01-10T02:19:19;7.00;99.90
7159;DHT22;63175;52.374;13.132;2023-01-10T02:25:23;7.00;99.90
7159;DHT22;63175;52.374;13.132;2023-01-10T02:28:19;7.00;99.90
7159;DHT22;63175;52.374;13.132;2023-01-10T02:31:09;7.00;99.90
7159;DHT22;63175;52.374;13.132;2023-01-10T02:33:44;7.00;99.90
7159;DHT22;63175;52.374;13.132;2023-01-10T02:36:22;7.00;99.90
7159;DHT22;63175;52.374;13.132;2023-01-10T02:38:57;7.00;99.90
7159;DHT22;63175;52.374;13.132;2023-01-10T02:41:30;7.00;99.90
7159;DHT22;63175;52.374;13.132;2023-01-10T02:44:06;7.00;99.90
7159;DHT22;63175;52.374;13.132;2023-01-10T02:46:34;7.10;99.90
7159;DHT22;63175;52.374;13.132;2023-01-10T02:49:04;7.10;99.90
7159;DHT22;63175;52.374;13.132;2023-01-10T02:51:31;7.10;99.90
7159;DHT22;63175;52.374;13.132;2023-01-10T02:54:01;7.00;99.90
7159;DHT22;63175;52.374;13.132;2023-01-10T02:56:54;7.00;99.90
7159;DHT22;63175;52.374;13.132;2023-01-10T03:02:47;7.00;99.90
7159;DHT22;63175;52.374;13.132;2023-01-10T03:05:29;7.10;99.90
7159;DHT22;63175;52.374;13.132;2023-01-10T03:08:08;7.10;99.90
7159;DHT22;63175;52.374;13.132;2023-01-10T03:10:39;7.00;99.90
7159;DHT22;63175;52.374;13.132;2023-01-10T03:13:12;7.00;99.90
7159;DHT22;63175;52.374;13.132;2023-01-10T03:15:42;7.00;99.90
7159;DHT22;63175;52.374;13.132;2023-01-10T03:18:14;7.00;99.90
7159;DHT22;63175;52.374;13.132;2023-01-10T03:20:44;7.00;99.90
7159;DHT22;63175;52.374;13.132;2023-01-10T03:23:14;7.00;99.90
7159;DHT22;63175;52.374;13.132;2023-01-10T03:25:43;7.00;99.90
7159;DHT22;63175;52.374;13.132;2023-01-10T03:28:14;7.00;99.90
7159;DHT22;63175;52.374;13.132;2023-01-10T03:30:44;6.90;99.90
7159;DHT22;63175;52.374;13.132;2023-01-10T03:33:13;6.90;99.90
7159;DHT22;63175;52.374;13.132;2023-01-10T03:35:51;6.90;99.90
7159;DHT22;63175;52.374;13.132;2023-01-10T03:38:26;6.90;99.90
7159;DHT22;63175;52.374;13.132;2023-01-10T03:40:58;6.90;99.90
7159;DHT22;63175;52.374;13.132;2023-01-10T03:43:38;6.90;99.90
7159;DHT22;63175;52.374;13.132;2023-01-10T03:46:31;6.90;99.90
7159;DHT22;63175;52.374;13.132;2023-01-10T03:48:59;6.90;99.90
7159;DHT22;63175;52.374;13.132;2023-01-10T03:51:31;6.90;99.90
7159;DHT22;63175;52.374;13.132;2023-01-10T03:53:59;6.90;99.90
7159;DHT22;63175;52.374;13.132;2023-01-10T03:56:26;6.90;99.90
7159;DHT22;63175;52.374;13.132;2023-01-10T03:58:53;7.00;99.90
7159;DHT22;63175;52.374;13.132;2023-01-10T04:01:20;7.00;99.90
7159;DHT22;63175;52.374;13.132;2023-01-10T04:03:47;7.00;99.90
7159;DHT22;63175;52.374;13.132;2023-01-10T04:06:14;7.00;99.90
7159;DHT22;63175;52.374;13.132;2023-01-10T04:08:43;7.00;99.90
7159;DHT22;63175;52.374;13.132;2023-01-10T04:11:10;7.00;99.90
7159;DHT22;63175;52.374;13.132;2023-01-10T04:13:37;7.00;99.90
7159;DHT22;63175;52.374;13.132;2023-01-10T04:16:06;7.00;99.90
7159;DHT22;63175;52.374;13.132;2023-01-10T04:18:33;7.00;99.90
7159;DHT22;63175;52.374;13.132;2023-01-10T04:21:00;7.00;99.90
7159;DHT22;63175;52.374;13.132;2023-01-10T04:23:27;7.00;99.90
7159;DHT22;63175;52.374;13.132;2023-01-10T04:25:55;7.00;99.90
7159;DHT22;63175;52.374;13.132;2023-01-10T04:28:22;7.00;99.90
7159;DHT22;63175;52.374;13.132;2023-01-10T04:30:49;7.00;99.90
7159;DHT22;63175;52.374;13.132;2023-01-10T04:33:16;6.90;99.90
7159;DHT22;63175;52.374;13.132;2023-01-10T04:35:46;6.90;99.90
7159;DHT22;63175;52.374;13.132;2023-01-10T04:38:13;6.90;99.90
7159;DHT22;63175;52.374;13.132;2023-01-10T04:40:40;6.90;99.90
7159;DHT22;63175;52.374;13.132;2023-01-10T04:43:09;6.90;99.90
7159;DHT22;63175;52.374;13.132;2023-01-10T04:45:36;6.90;99.90
7159;DHT22;63175;52.374;13.132;2023-01-10T04:48:03;6.90;99.90
7159;DHT22;63175;52.374;13.132;2023-01-10T04:50:30;6.90;99.90
7159;DHT22;63175;52.374;13.132;2023-01-10T04:52:57;6.90;99.90
7159;DHT22;63175;52.374;13.132;2023-01-10T04:55:24;6.90;99.90
7159;DHT22;63175;52.374;13.132;2023-01-10T04:57:51;6.90;99.90
7159;DHT22;63175;52.374;13.132;2023-01-10T05:00:19;6.90;99.90
7159;DHT22;63175;52.374;13.132;2023-01-10T05:02:46;6.90;99.90
7159;DHT22;63175;52.374;13.132;2023-01-10T05:05:13;6.90;99.90
7159;DHT22;63175;52.374;13.132;2023-01-10T05:07:40;6.90;99.90
7159;DHT22;63175;52.374;13.132;2023-01-10T05:10:08;6.90;99.90
7159;DHT22;63175;52.374;13.132;2023-01-10T05:12:35;6.90;99.90
7159;DHT22;63175;52.374;13.132;2023-01-10T05:15:02;6.90;99.90
7159;DHT22;63175;52.374;13.132;2023-01-10T05:17:31;6.90;99.90
7159;DHT22;63175;52.374;13.132;2023-01-10T05:19:58;6.90;99.90
7159;DHT22;63175;52.374;13.132;2023-01-10T05:22:25;6.90;99.90
7159;DHT22;63175;52.374;13.132;2023-01-10T05:24:52;6.90;99.90
7159;DHT22;63175;52.374;13.132;2023-01-10T05:27:19;6.90;99.90
7159;DHT22;63175;52.374;13.132;2023-01-10T05:29:45;6.90;99.90
7159;DHT22;63175;52.374;13.132;2023-01-10T05:32:12;6.90;99.90
7159;DHT22;63175;52.374;13.132;2023-01-10T05:34:40;6.90;99.90
7159;DHT22;63175;52.374;13.132;2023-01-10T05:37:08;6.90;99.90
7159;DHT22;63175;52.374;13.132;2023-01-10T05:39:35;6.90;99.90
7159;DHT22;63175;52.374;13.132;2023-01-10T05:42:03;6.90;99.90
7159;DHT22;63175;52.374;13.132;2023-01-10T05:44:30;6.90;99.90
7159;DHT22;63175;52.374;13.132;2023-01-10T05:46:57;7.00;99.90
7159;DHT22;63175;52.374;13.132;2023-01-10T05:49:24;7.00;99.90
7159;DHT22;63175;52.374;13.132;2023-01-10T05:51:52;7.00;99.90
7159;DHT22;63175;52.374;13.132;2023-01-10T05:54:19;7.00;99.90
7159;DHT22;63175;52.374;13.132;2023-01-10T05:56:46;7.00;99.90
7159;DHT22;63175;52.374;13.132;2023-01-10T05:59:13;7.00;99.90
7159;DHT22;63175;52.374;13.132;2023-01-10T06:01:40;7.00;99.90
7159;DHT22;63175;52.374;13.132;2023-01-10T06:04:06;7.00;99.90
7159;DHT22;63175;52.374;13.132;2023-01-10T06:06:33;7.00;99.90
7159;DHT22;63175;52.374;13.132;2023-01-10T06:09:02;7.00;99.90
7159;DHT22;63175;52.374;13.132;2023-01-10T06:11:28;7.00;99.90
7159;DHT22;63175;52.374;13.132;2023-01-10T06:13:55;7.00;99.90
7159;DHT22;63175;52.374;13.132;2023-01-10T06:16:22;7.00;99.90
7159;DHT22;63175;52.374;13.132;2023-01-10T06:18:49;7.00;99.90
7159;DHT22;63175;52.374;13.132;2023-01-10T06:21:16;7.00;99.90
7159;DHT22;63175;52.374;13.132;2023-01-10T06:23:43;7.00;99.90
7159;DHT22;63175;52.374;13.132;2023-01-10T06:26:11;7.00;99.90
7159;DHT22;63175;52.374;13.132;2023-01-10T06:28:38;7.00;99.90
7159;DHT22;63175;52.374;13.132;2023-01-10T06:31:06;7.00;99.90
7159;DHT22;63175;52.374;13.132;2023-01-10T06:33:33;7.00;99.90
7159;DHT22;63175;52.374;13.132;2023-01-10T06:36:00;7.00;99.90
7159;DHT22;63175;52.374;13.132;2023-01-10T06:38:27;7.00;99.90
7159;DHT22;63175;52.374;13.132;2023-01-10T06:40:53;7.00;99.90
7159;DHT22;63175;52.374;13.132;2023-01-10T06:43:22;7.00;99.90
7159;DHT22;63175;52.374;13.132;2023-01-10T06:45:49;7.10;99.90
7159;DHT22;63175;52.374;13.132;2023-01-10T06:48:16;7.00;99.90
7159;DHT22;63175;52.374;13.132;2023-01-10T06:50:42;7.00;99.90
7159;DHT22;63175;52.374;13.132;2023-01-10T06:53:09;7.10;99.90
7159;DHT22;63175;52.374;13.132;2023-01-10T06:55:36;7.00;99.90
7159;DHT22;63175;52.374;13.132;2023-01-10T06:58:03;7.10;99.90
7159;DHT22;63175;52.374;13.132;2023-01-10T07:00:31;7.00;99.90
7159;DHT22;63175;52.374;13.132;2023-01-10T07:02:59;7.10;99.90
7159;DHT22;63175;52.374;13.132;2023-01-10T07:05:26;7.10;99.90
7159;DHT22;63175;52.374;13.132;2023-01-10T07:07:54;7.10;99.90
7159;DHT22;63175;52.374;13.132;2023-01-10T07:10:22;7.00;99.90
7159;DHT22;63175;52.374;13.132;2023-01-10T07:12:49;7.00;99.90
7159;DHT22;63175;52.374;13.132;2023-01-10T07:15:16;7.00;99.90
7159;DHT22;63175;52.374;13.132;2023-01-10T07:17:44;7.00;99.90
7159;DHT22;63175;52.374;13.132;2023-01-10T07:20:11;7.00;99.90
7159;DHT22;63175;52.374;13.132;2023-01-10T07:22:38;7.00;99.90
7159;DHT22;63175;52.374;13.132;2023-01-10T07:25:05;7.00;99.90
7159;DHT22;63175;52.374;13.132;2023-01-10T07:27:33;7.00;99.90
7159;DHT22;63175;52.374;13.132;2023-01-10T07:30:00;7.00;99.90
7159;DHT22;63175;52.374;13.132;2023-01-10T07:32:27;6.90;99.90
7159;DHT22;63175;52.374;13.132;2023-01-10T07:34:55;6.90;99.90
7159;DHT22;63175;52.374;13.132;2023-01-10T07:37:22;6.90;99.90
7159;DHT22;63175;52.374;13.132;2023-01-10T07:39:48;6.90;99.90
7159;DHT22;63175;52.374;13.132;2023-01-10T07:42:15;6.90;99.90
7159;DHT22;63175;52.374;13.132;2023-01-10T07:44:42;6.90;99.90
7159;DHT22;63175;52.374;13.132;2023-01-10T07:47:09;6.90;99.90
7159;DHT22;63175;52.374;13.132;2023-01-10T07:49:36;6.90;99.90
7159;DHT22;63175;52.374;13.132;2023-01-10T07:52:04;6.90;99.90
7159;DHT22;63175;52.374;13.132;2023-01-10T07:54:33;6.90;99.90
7159;DHT22;63175;52.374;13.132;2023-01-10T07:57:00;6.90;99.90
7159;DHT22;63175;52.374;13.132;2023-01-10T07:59:27;6.90;99.90
7159;DHT22;63175;52.374;13.132;2023-01-10T08:01:54;6.90;99.90
7159;DHT22;63175;52.374;13.132;2023-01-10T08:04:20;6.90;99.90
7159;DHT22;63175;52.374;13.132;2023-01-10T08:06:47;6.90;99.90
7159;DHT22;63175;52.374;13.132;2023-01-10T08:09:16;6.90;99.90
7159;DHT22;63175;52.374;13.132;2023-01-10T08:11:42;6.90;99.90
7159;DHT22;63175;52.374;13.132;2023-01-10T08:14:09;6.90;99.90
7159;DHT22;63175;52.374;13.132;2023-01-10T08:16:36;6.90;99.90
7159;DHT22;63175;52.374;13.132;2023-01-10T08:19:03;7.00;99.90
7159;DHT22;63175;52.374;13.132;2023-01-10T08:21:30;7.00;99.90
7159;DHT22;63175;52.374;13.132;2023-01-10T08:23:57;7.00;99.90
7159;DHT22;63175;52.374;13.132;2023-01-10T08:26:25;7.00;99.90
7159;DHT22;63175;52.374;13.132;2023-01-10T08:28:52;7.00;99.90
7159;DHT22;63175;52.374;13.132;2023-01-10T08:31:19;7.10;99.90
7159;DHT22;63175;52.374;13.132;2023-01-10T08:33:45;7.10;99.90
7159;DHT22;63175;52.374;13.132;2023-01-10T08:36:16;7.10;99.90
7159;DHT22;63175;52.374;13.132;2023-01-10T08:38:43;7.10;99.90
7159;DHT22;63175;52.374;13.132;2023-01-10T08:41:10;7.10;99.90
7159;DHT22;63175;52.374;13.132;2023-01-10T08:43:39;7.20;99.90
7159;DHT22;63175;52.374;13.132;2023-01-10T08:46:06;7.20;99.90
7159;DHT22;63175;52.374;13.132;2023-01-10T08:48:33;7.30;99.90
7159;DHT22;63175;52.374;13.132;2023-01-10T08:51:05;7.40;99.90
7159;DHT22;63175;52.374;13.132;2023-01-10T08:53:32;7.50;99.90
7159;DHT22;63175;52.374;13.132;2023-01-10T08:55:59;7.60;99.90
7159;DHT22;63175;52.374;13.132;2023-01-10T08:58:26;7.70;99.90
7159;DHT22;63175;52.374;13.132;2023-01-10T09:00:54;7.80;99.90
7159;DHT22;63175;52.374;13.132;2023-01-10T09:03:21;7.90;99.90
7159;DHT22;63175;52.374;13.132;2023-01-10T09:05:47;8.00;99.90
7159;DHT22;63175;52.374;13.132;2023-01-10T09:08:14;8.00;99.90
7159;DHT22;63175;52.374;13.132;2023-01-10T09:10:41;8.10;99.90
7159;DHT22;63175;52.374;13.132;2023-01-10T09:13:08;8.00;99.90
7159;DHT22;63175;52.374;13.132;2023-01-10T09:15:36;8.10;99.90
7159;DHT22;63175;52.374;13.132;2023-01-10T09:18:06;8.00;99.90
7159;DHT22;63175;52.374;13.132;2023-01-10T09:20:35;8.00;99.90
7159;DHT22;63175;52.374;13.132;2023-01-10T09:23:04;8.00;99.90
7159;DHT22;63175;52.374;13.132;2023-01-10T09:25:33;8.00;99.90
7159;DHT22;63175;52.374;13.132;2023-01-10T09:28:00;8.00;99.90
7159;DHT22;63175;52.374;13.132;2023-01-10T09:30:29;8.00;99.90
7159;DHT22;63175;52.374;13.132;2023-01-10T09:32:57;8.00;99.90
7159;DHT22;63175;52.374;13.132;2023-01-10T09:35:27;8.00;99.90
7159;DHT22;63175;52.374;13.132;2023-01-10T09:37:54;8.00;99.90
7159;DHT22;63175;52.374;13.132;2023-01-10T09:40:29;8.00;99.90
7159;DHT22;63175;52.374;13.132;2023-01-10T09:43:04;8.00;99.90
7159;DHT22;63175;52.374;13.132;2023-01-10T09:45:38;8.00;99.90
7159;DHT22;63175;52.374;13.132;2023-01-10T09:48:14;8.10;99.90
7159;DHT22;63175;52.374;13.132;2023-01-10T09:50:52;8.10;99.90
7159;DHT22;63175;52.374;13.132;2023-01-10T09:53:22;8.10;99.90
7159;DHT22;63175;52.374;13.132;2023-01-10T09:55:52;8.10;99.90
7159;DHT22;63175;52.374;13.132;2023-01-10T09:58:23;8.10;99.90
7159;DHT22;63175;52.374;13.132;2023-01-10T10:00:55;8.20;99.90
7159;DHT22;63175;52.374;13.132;2023-01-10T10:03:28;8.30;99.90
7159;DHT22;63175;52.374;13.132;2023-01-10T10:05:58;8.30;99.90
7159;DHT22;63175;52.374;13.132;2023-01-10T10:08:25;8.40;99.90
7159;DHT22;63175;52.374;13.132;2023-01-10T10:11:02;8.50;99.90
7159;DHT22;63175;52.374;13.132;2023-01-10T10:13:42;8.60;99.90
7159;DHT22;63175;52.374;13.132;2023-01-10T10:16:17;8.80;99.90
7159;DHT22;63175;52.374;13.132;2023-01-10T10:18:54;8.90;99.90
7159;DHT22;63175;52.374;13.132;2023-01-10T10:21:31;9.00;99.90
7159;DHT22;63175;52.374;13.132;2023-01-10T10:24:25;9.10;99.90
7159;DHT22;63175;52.374;13.132;2023-01-10T10:26:56;9.20;99.90
7159;DHT22;63175;52.374;13.132;2023-01-10T10:30:11;9.30;99.90
7159;DHT22;63175;52.374;13.132;2023-01-10T10:35:30;9.50;99.90
7159;DHT22;63175;52.374;13.132;2023-01-10T10:38:03;9.60;99.90
7159;DHT22;63175;52.374;13.132;2023-01-10T10:40:35;9.60;99.90
7159;DHT22;63175;52.374;13.132;2023-01-10T10:43:13;9.60;99.90
7159;DHT22;63175;52.374;13.132;2023-01-10T10:45:45;9.70;99.90
7159;DHT22;63175;52.374;13.132;2023-01-10T10:48:15;9.70;99.90
7159;DHT22;63175;52.374;13.132;2023-01-10T10:50:51;9.80;99.90
7159;DHT22;63175;52.374;13.132;2023-01-10T10:53:21;9.80;99.90
7159;DHT22;63175;52.374;13.132;2023-01-10T10:55:47;9.80;99.90
7159;DHT22;63175;52.374;13.132;2023-01-10T10:58:15;9.80;99.90
7159;DHT22;63175;52.374;13.132;2023-01-10T11:00:43;9.80;99.90
7159;DHT22;63175;52.374;13.132;2023-01-10T11:03:23;9.70;99.90
7159;DHT22;63175;52.374;13.132;2023-01-10T11:05:51;9.70;99.90
7159;DHT22;63175;52.374;13.132;2023-01-10T11:08:20;9.70;99.90
7159;DHT22;63175;52.374;13.132;2023-01-10T11:10:51;9.80;99.90
7159;DHT22;63175;52.374;13.132;2023-01-10T11:13:28;10.00;99.90
7159;DHT22;63175;52.374;13.132;2023-01-10T11:15:56;10.20;99.90
7159;DHT22;63175;52.374;13.132;2023-01-10T11:18:25;10.40;99.90
7159;DHT22;63175;52.374;13.132;2023-01-10T11:20:55;10.40;99.90
7159;DHT22;63175;52.374;13.132;2023-01-10T11:23:35;10.40;99.90
7159;DHT22;63175;52.374;13.132;2023-01-10T11:26:03;10.30;99.90
7159;DHT22;63175;52.374;13.132;2023-01-10T11:28:31;10.30;99.90
7159;DHT22;63175;52.374;13.132;2023-01-10T11:30:59;10.20;99.90
7159;DHT22;63175;52.374;13.132;2023-01-10T11:33:30;10.20;99.90
7159;DHT22;63175;52.374;13.132;2023-01-10T11:36:01;10.20;99.90
7159;DHT22;63175;52.374;13.132;2023-01-10T11:38:32;10.30;99.90
7159;DHT22;63175;52.374;13.132;2023-01-10T11:41:01;10.30;99.90
7159;DHT22;63175;52.374;13.132;2023-01-10T11:43:33;10.30;99.90
7159;DHT22;63175;52.374;13.132;2023-01-10T11:46:02;10.30;99.90
7159;DHT22;63175;52.374;13.132;2023-01-10T11:48:42;10.10;99.90
7159;DHT22;63175;52.374;13.132;2023-01-10T11:51:21;10.10;99.90
7159;DHT22;63175;52.374;13.132;2023-01-10T11:53:56;10.10;99.90
7159;DHT22;63175;52.374;13.132;2023-01-10T11:56:25;10.10;99.90
7159;DHT22;63175;52.374;13.132;2023-01-10T11:58:53;10.20;99.90
7159;DHT22;63175;52.374;13.132;2023-01-10T12:01:29;10.30;99.90
7159;DHT22;63175;52.374;13.132;2023-01-10T12:03:57;10.50;99.90
7159;DHT22;63175;52.374;13.132;2023-01-10T12:06:25;10.60;99.90
7159;DHT22;63175;52.374;13.132;2023-01-10T12:08:54;10.70;99.90
7159;DHT22;63175;52.374;13.132;2023-01-10T12:11:25;10.80;99.90
7159;DHT22;63175;52.374;13.132;2023-01-10T12:13:55;10.80;99.90
7159;DHT22;63175;52.374;13.132;2023-01-10T12:16:23;10.90;99.90
7159;DHT22;63175;52.374;13.132;2023-01-10T12:18:52;10.90;99.90
7159;DHT22;63175;52.374;13.132;2023-01-10T12:21:24;11.00;99.90
7159;DHT22;63175;52.374;13.132;2023-01-10T12:23:55;11.10;99.90
7159;DHT22;63175;52.374;13.132;2023-01-10T12:26:24;11.10;99.90
7159;DHT22;63175;52.374;13.132;2023-01-10T12:28:53;11.20;99.90
7159;DHT22;63175;52.374;13.132;2023-01-10T12:31:23;11.30;99.90
7159;DHT22;63175;52.374;13.132;2023-01-10T12:33:54;11.30;99.90
7159;DHT22;63175;52.374;13.132;2023-01-10T12:36:36;11.30;99.90
7159;DHT22;63175;52.374;13.132;2023-01-10T12:39:13;11.40;99.90
7159;DHT22;63175;52.374;13.132;2023-01-10T12:41:47;11.40;99.90
7159;DHT22;63175;52.374;13.132;2023-01-10T12:44:38;11.40;99.90
7159;DHT22;63175;52.374;13.132;2023-01-10T12:47:15;11.20;99.90
7159;DHT22;63175;52.374;13.132;2023-01-10T12:49:47;11.20;99.90
7159;DHT22;63175;52.374;13.132;2023-01-10T12:52:19;11.00;99.90
7159;DHT22;63175;52.374;13.132;2023-01-10T12:54:49;10.90;99.90
7159;DHT22;63175;52.374;13.132;2023-01-10T12:57:23;10.80;99.90
7159;DHT22;63175;52.374;13.132;2023-01-10T12:59:53;10.60;99.90
7159;DHT22;63175;52.374;13.132;2023-01-10T13:02:24;10.50;99.90
7159;DHT22;63175;52.374;13.132;2023-01-10T13:04:57;10.30;99.90
7159;DHT22;63175;52.374;13.132;2023-01-10T13:07:28;10.20;99.90
7159;DHT22;63175;52.374;13.132;2023-01-10T13:10:00;10.10;99.90
7159;DHT22;63175;52.374;13.132;2023-01-10T13:12:30;10.00;99.90
7159;DHT22;63175;52.374;13.132;2023-01-10T13:15:03;9.90;99.90
7159;DHT22;63175;52.374;13.132;2023-01-10T13:17:38;9.80;99.90
7159;DHT22;63175;52.374;13.132;2023-01-10T13:20:37;9.70;99.90
7159;DHT22;63175;52.374;13.132;2023-01-10T13:23:28;9.60;99.90
7159;DHT22;63175;52.374;13.132;2023-01-10T13:25:59;9.50;99.90
7159;DHT22;63175;52.374;13.132;2023-01-10T13:28:28;9.50;99.90
7159;DHT22;63175;52.374;13.132;2023-01-10T13:30:57;9.40;99.90
7159;DHT22;63175;52.374;13.132;2023-01-10T13:33:27;9.40;99.90
7159;DHT22;63175;52.374;13.132;2023-01-10T13:35:57;9.40;99.90
7159;DHT22;63175;52.374;13.132;2023-01-10T13:38:37;9.40;99.90
7159;DHT22;63175;52.374;13.132;2023-01-10T13:41:08;9.40;99.90
7159;DHT22;63175;52.374;13.132;2023-01-10T13:44:01;9.50;99.90
7159;DHT22;63175;52.374;13.132;2023-01-10T13:46:41;9.50;99.90
7159;DHT22;63175;52.374;13.132;2023-01-10T13:52:36;9.60;99.90
7159;DHT22;63175;52.374;13.132;2023-01-10T13:55:30;9.50;99.90
7159;DHT22;63175;52.374;13.132;2023-01-10T13:58:02;9.50;99.90
7159;DHT22;63175;52.374;13.132;2023-01-10T14:00:44;9.50;99.90
7159;DHT22;63175;52.374;13.132;2023-01-10T14:03:47;9.40;99.90
7159;DHT22;63175;52.374;13.132;2023-01-10T14:06:19;9.40;99.90
7159;DHT22;63175;52.374;13.132;2023-01-10T14:08:49;9.40;99.90
7159;DHT22;63175;52.374;13.132;2023-01-10T14:11:17;9.40;99.90
7159;DHT22;63175;52.374;13.132;2023-01-10T14:13:49;9.40;99.90
7159;DHT22;63175;52.374;13.132;2023-01-10T14:16:28;9.40;99.90
7159;DHT22;63175;52.374;13.132;2023-01-10T14:18:56;9.30;99.90
7159;DHT22;63175;52.374;13.132;2023-01-10T14:21:25;9.30;99.90
7159;DHT22;63175;52.374;13.132;2023-01-10T14:23:53;9.30;99.90
7159;DHT22;63175;52.374;13.132;2023-01-10T14:26:27;9.40;99.90
7159;DHT22;63175;52.374;13.132;2023-01-10T14:28:58;9.30;99.90
7159;DHT22;63175;52.374;13.132;2023-01-10T14:31:25;9.30;99.90
7159;DHT22;63175;52.374;13.132;2023-01-10T14:33:53;9.20;99.90
7159;DHT22;63175;52.374;13.132;2023-01-10T14:36:24;9.30;99.90
7159;DHT22;63175;52.374;13.132;2023-01-10T14:38:55;9.20;99.90
7159;DHT22;63175;52.374;13.132;2023-01-10T14:41:30;9.20;99.90
7159;DHT22;63175;52.374;13.132;2023-01-10T14:44:01;9.10;99.90
7159;DHT22;63175;52.374;13.132;2023-01-10T14:46:32;9.10;99.90
7159;DHT22;63175;52.374;13.132;2023-01-10T14:49:19;9.10;99.90
7159;DHT22;63175;52.374;13.132;2023-01-10T14:51:46;9.00;99.90
7159;DHT22;63175;52.374;13.132;2023-01-10T14:54:16;9.00;99.90
7159;DHT22;63175;52.374;13.132;2023-01-10T14:56:45;9.00;99.90
7159;DHT22;63175;52.374;13.132;2023-01-10T14:59:17;9.00;99.90
7159;DHT22;63175;52.374;13.132;2023-01-10T15:01:48;8.90;99.90
7159;DHT22;63175;52.374;13.132;2023-01-10T15:04:18;8.90;99.90
7159;DHT22;63175;52.374;13.132;2023-01-10T15:06:54;8.90;99.90
7159;DHT22;63175;52.374;13.132;2023-01-10T15:09:22;8.90;99.90
7159;DHT22;63175;52.374;13.132;2023-01-10T15:11:50;8.90;99.90
7159;DHT22;63175;52.374;13.132;2023-01-10T15:14:20;8.80;99.90
7159;DHT22;63175;52.374;13.132;2023-01-10T15:16:53;8.80;99.90
7159;DHT22;63175;52.374;13.132;2023-01-10T15:19:22;8.80;99.90
7159;DHT22;63175;52.374;13.132;2023-01-10T15:21:50;8.80;99.90
7159;DHT22;63175;52.374;13.132;2023-01-10T15:24:31;8.80;99.90
7159;DHT22;63175;52.374;13.132;2023-01-10T15:27:00;8.80;99.90
7159;DHT22;63175;52.374;13.132;2023-01-10T15:29:30;8.80;99.90
7159;DHT22;63175;52.374;13.132;2023-01-10T15:32:09;8.70;99.90
7159;DHT22;63175;52.374;13.132;2023-01-10T15:34:37;8.70;99.90
7159;DHT22;63175;52.374;13.132;2023-01-10T15:37:05;8.70;99.90
7159;DHT22;63175;52.374;13.132;2023-01-10T15:39:34;8.70;99.90
7159;DHT22;63175;52.374;13.132;2023-01-10T15:42:04;8.70;99.90
7159;DHT22;63175;52.374;13.132;2023-01-10T15:44:39;8.60;99.90
7159;DHT22;63175;52.374;13.132;2023-01-10T15:47:33;8.60;99.90
7159;DHT22;63175;52.374;13.132;2023-01-10T15:50:00;8.50;99.90
7159;DHT22;63175;52.374;13.132;2023-01-10T15:52:27;8.50;99.90
7159;DHT22;63175;52.374;13.132;2023-01-10T15:54:54;8.50;99.90
7159;DHT22;63175;52.374;13.132;2023-01-10T15:57:25;8.40;99.90
7159;DHT22;63175;52.374;13.132;2023-01-10T15:59:56;8.40;99.90
7159;DHT22;63175;52.374;13.132;2023-01-10T16:02:24;8.40;99.90
7159;DHT22;63175;52.374;13.132;2023-01-10T16:04:57;8.40;99.90
7159;DHT22;63175;52.374;13.132;2023-01-10T16:07:27;8.30;99.90
7159;DHT22;63175;52.374;13.132;2023-01-10T16:09:57;8.30;99.90
7159;DHT22;63175;52.374;13.132;2023-01-10T16:12:32;8.30;99.90
7159;DHT22;63175;52.374;13.132;2023-01-10T16:15:19;8.30;99.90
7159;DHT22;63175;52.374;13.132;2023-01-10T16:17:47;8.30;99.90